sensor_id;sensor_type;location;lat;lon;timestamp;pressure;altitude;pressure_sealevel;temperature;humidity
52137;BME280;69622;49.570;10.986;2023-07-31T00:01:13;98337.09;;;16.31;89.60
52137;BME280;69622;49.570;10.986;2023-07-31T00:04:15;98334.91;;;16.44;87.08
52137;BME280;69622;49.570;10.986;2023-07-31T00:07:16;98328.25;;;16.32;88.15
52137;BME280;69622;49.570;10.986;2023-07-31T00:10:18;98326.59;;;16.31;87.11
52137;BME280;69622;49.570;10.986;2023-07-31T00:13:19;98321.19;;;16.33;87.95
52137;BME280;69622;49.570;10.986;2023-07-31T00:16:21;98308.00;;;16.25;88.75
52137;BME280;69622;49.570;10.986;2023-07-31T00:19:23;98310.25;;;16.20;89.65
52137;BME280;69622;49.570;10.986;2023-07-31T00:22:24;98313.13;;;16.26;89.38
52137;BME280;69622;49.570;10.986;2023-07-31T00:25:25;98310.53;;;16.34;88.73
52137;BME280;69622;49.570;10.986;2023-07-31T00:28:27;98309.53;;;16.27;90.12
52137;BME280;69622;49.570;10.986;2023-07-31T00:31:30;98306.28;;;16.33;89.18
52137;BME280;69622;49.570;10.986;2023-07-31T00:34:31;98311.13;;;16.46;87.50
52137;BME280;69622;49.570;10.986;2023-07-31T00:37:33;98314.78;;;16.53;87.12
52137;BME280;69622;49.570;10.986;2023-07-31T00:40:35;98314.28;;;16.50;86.80
52137;BME280;69622;49.570;10.986;2023-07-31T00:43:38;98309.09;;;16.58;85.87
52137;BME280;69622;49.570;10.986;2023-07-31T00:46:39;98309.38;;;16.55;86.58
52137;BME280;69622;49.570;10.986;2023-07-31T00:49:41;98306.78;;;16.37;88.35
52137;BME280;69622;49.570;10.986;2023-07-31T00:52:43;98312.66;;;16.31;89.34
52137;BME280;69622;49.570;10.986;2023-07-31T00:55:45;98307.03;;;16.43;88.39
52137;BME280;69622;49.570;10.986;2023-07-31T00:58:46;98310.47;;;16.44;87.09
52137;BME280;69622;49.570;10.986;2023-07-31T01:01:48;98315.88;;;16.25;89.41
52137;BME280;69622;49.570;10.986;2023-07-31T01:04:50;98307.94;;;16.16;92.32
52137;BME280;69622;49.570;10.986;2023-07-31T01:08:11;98299.88;;;16.10;93.08
52137;BME280;69622;49.570;10.986;2023-07-31T01:11:25;98298.19;;;16.27;91.89
52137;BME280;69622;49.570;10.986;2023-07-31T01:14:28;98303.16;;;16.12;93.23
52137;BME280;69622;49.570;10.986;2023-07-31T01:17:30;98293.19;;;16.15;92.75
52137;BME280;69622;49.570;10.986;2023-07-31T01:20:33;98297.16;;;16.20;92.65
52137;BME280;69622;49.570;10.986;2023-07-31T01:23:51;98292.41;;;16.23;91.53
52137;BME280;69622;49.570;10.986;2023-07-31T01:27:04;98292.41;;;16.23;92.37
52137;BME280;69622;49.570;10.986;2023-07-31T01:30:18;98291.66;;;16.31;90.81
52137;BME280;69622;49.570;10.986;2023-07-31T01:33:23;98290.19;;;16.28;90.25
52137;BME280;69622;49.570;10.986;2023-07-31T01:36:25;98287.03;;;16.51;87.85
52137;BME280;69622;49.570;10.986;2023-07-31T01:39:27;98289.09;;;16.39;89.64
52137;BME280;69622;49.570;10.986;2023-07-31T01:42:28;98280.78;;;16.43;89.25
52137;BME280;69622;49.570;10.986;2023-07-31T01:45:30;98284.50;;;16.59;87.13
52137;BME280;69622;49.570;10.986;2023-07-31T01:48:31;98276.06;;;16.55;87.18
52137;BME280;69622;49.570;10.986;2023-07-31T01:51:37;98266.28;;;16.39;90.09
52137;BME280;69622;49.570;10.986;2023-07-31T01:54:38;98262.09;;;16.46;89.11
52137;BME280;69622;49.570;10.986;2023-07-31T01:57:40;98260.22;;;16.39;88.92
52137;BME280;69622;49.570;10.986;2023-07-31T02:00:41;98262.66;;;16.58;88.79
52137;BME280;69622;49.570;10.986;2023-07-31T02:03:43;98254.47;;;16.35;90.87
52137;BME280;69622;49.570;10.986;2023-07-31T02:06:44;98243.78;;;16.29;92.07
52137;BME280;69622;49.570;10.986;2023-07-31T02:09:46;98244.41;;;16.05;93.37
52137;BME280;69622;49.570;10.986;2023-07-31T02:12:49;98242.72;;;16.22;92.06
52137;BME280;69622;49.570;10.986;2023-07-31T02:15:50;98238.41;;;16.38;90.14
52137;BME280;69622;49.570;10.986;2023-07-31T02:18:52;98241.31;;;16.27;92.25
52137;BME280;69622;49.570;10.986;2023-07-31T02:21:53;98227.16;;;16.20;94.29
52137;BME280;69622;49.570;10.986;2023-07-31T02:24:55;98227.88;;;16.30;93.04
52137;BME280;69622;49.570;10.986;2023-07-31T02:27:56;98230.13;;;16.25;94.04
52137;BME280;69622;49.570;10.986;2023-07-31T02:30:58;98225.59;;;16.35;93.52
52137;BME280;69622;49.570;10.986;2023-07-31T02:34:00;98225.72;;;16.26;94.19
52137;BME280;69622;49.570;10.986;2023-07-31T02:37:01;98220.66;;;16.06;95.91
52137;BME280;69622;49.570;10.986;2023-07-31T02:40:03;98225.97;;;16.14;94.15
52137;BME280;69622;49.570;10.986;2023-07-31T02:43:04;98228.69;;;16.31;91.93
52137;BME280;69622;49.570;10.986;2023-07-31T02:46:06;98235.09;;;16.28;92.14
52137;BME280;69622;49.570;10.986;2023-07-31T02:49:07;98231.09;;;16.24;92.67
52137;BME280;69622;49.570;10.986;2023-07-31T02:52:09;98234.03;;;16.21;93.16
52137;BME280;69622;49.570;10.986;2023-07-31T02:55:11;98234.53;;;16.25;94.33
52137;BME280;69622;49.570;10.986;2023-07-31T02:58:12;98231.47;;;16.29;92.27
52137;BME280;69622;49.570;10.986;2023-07-31T03:01:13;98225.56;;;16.27;93.12
52137;BME280;69622;49.570;10.986;2023-07-31T03:04:15;98220.84;;;16.31;92.54
52137;BME280;69622;49.570;10.986;2023-07-31T03:07:19;98218.44;;;16.20;93.22
52137;BME280;69622;49.570;10.986;2023-07-31T03:10:20;98220.50;;;16.34;93.21
52137;BME280;69622;49.570;10.986;2023-07-31T03:13:22;98225.00;;;16.15;92.47
52137;BME280;69622;49.570;10.986;2023-07-31T03:16:23;98218.38;;;16.29;93.25
52137;BME280;69622;49.570;10.986;2023-07-31T03:19:25;98221.00;;;16.29;92.85
52137;BME280;69622;49.570;10.986;2023-07-31T03:22:26;98229.16;;;16.78;87.68
52137;BME280;69622;49.570;10.986;2023-07-31T03:25:27;98221.06;;;16.20;91.73
52137;BME280;69622;49.570;10.986;2023-07-31T03:28:29;98220.59;;;16.24;92.17
52137;BME280;69622;49.570;10.986;2023-07-31T03:31:31;98219.69;;;16.33;91.64
52137;BME280;69622;49.570;10.986;2023-07-31T03:34:33;98219.91;;;16.14;91.67
52137;BME280;69622;49.570;10.986;2023-07-31T03:37:35;98224.91;;;16.07;92.91
52137;BME280;69622;49.570;10.986;2023-07-31T03:40:36;98220.41;;;16.17;91.08
52137;BME280;69622;49.570;10.986;2023-07-31T03:43:38;98217.88;;;16.08;91.75
52137;BME280;69622;49.570;10.986;2023-07-31T03:46:39;98219.34;;;16.28;90.55
52137;BME280;69622;49.570;10.986;2023-07-31T03:49:41;98224.63;;;16.10;91.96
52137;BME280;69622;49.570;10.986;2023-07-31T03:52:43;98223.88;;;16.00;93.16
52137;BME280;69622;49.570;10.986;2023-07-31T03:55:44;98219.38;;;16.10;92.72
52137;BME280;69622;49.570;10.986;2023-07-31T03:58:46;98229.88;;;15.93;93.60
52137;BME280;69622;49.570;10.986;2023-07-31T04:01:47;98223.28;;;16.06;92.74
52137;BME280;69622;49.570;10.986;2023-07-31T04:04:48;98223.00;;;15.92;94.25
52137;BME280;69622;49.570;10.986;2023-07-31T04:07:50;98216.59;;;16.12;92.73
52137;BME280;69622;49.570;10.986;2023-07-31T04:10:51;98216.50;;;15.96;92.05
52137;BME280;69622;49.570;10.986;2023-07-31T04:13:53;98219.19;;;15.86;92.87
52137;BME280;69622;49.570;10.986;2023-07-31T04:16:54;98219.59;;;16.17;91.22
52137;BME280;69622;49.570;10.986;2023-07-31T04:19:56;98220.22;;;15.93;92.52
52137;BME280;69622;49.570;10.986;2023-07-31T04:22:57;98227.34;;;15.83;95.97
52137;BME280;69622;49.570;10.986;2023-07-31T04:25:59;98218.75;;;15.73;95.75
52137;BME280;69622;49.570;10.986;2023-07-31T04:29:00;98217.59;;;15.75;95.14
52137;BME280;69622;49.570;10.986;2023-07-31T04:32:02;98221.16;;;15.66;96.93
52137;BME280;69622;49.570;10.986;2023-07-31T04:35:04;98221.22;;;15.74;95.78
52137;BME280;69622;49.570;10.986;2023-07-31T04:38:05;98214.94;;;15.67;96.79
52137;BME280;69622;49.570;10.986;2023-07-31T04:41:07;98201.03;;;15.57;97.13
52137;BME280;69622;49.570;10.986;2023-07-31T04:44:08;98191.34;;;15.67;96.60
52137;BME280;69622;49.570;10.986;2023-07-31T04:47:12;98192.75;;;15.79;94.77
52137;BME280;69622;49.570;10.986;2023-07-31T04:50:14;98192.38;;;15.74;96.53
52137;BME280;69622;49.570;10.986;2023-07-31T04:53:15;98191.84;;;15.71;96.50
52137;BME280;69622;49.570;10.986;2023-07-31T04:56:16;98193.13;;;15.84;96.21
52137;BME280;69622;49.570;10.986;2023-07-31T04:59:18;98194.63;;;15.69;96.38
52137;BME280;69622;49.570;10.986;2023-07-31T05:02:19;98195.66;;;15.76;96.45
52137;BME280;69622;49.570;10.986;2023-07-31T05:05:21;98198.38;;;15.84;96.21
52137;BME280;69622;49.570;10.986;2023-07-31T05:08:22;98198.13;;;15.96;95.73
52137;BME280;69622;49.570;10.986;2023-07-31T05:11:24;98194.59;;;15.87;98.02
52137;BME280;69622;49.570;10.986;2023-07-31T05:14:26;98199.63;;;15.98;96.38
52137;BME280;69622;49.570;10.986;2023-07-31T05:17:27;98199.53;;;15.90;98.51
52137;BME280;69622;49.570;10.986;2023-07-31T05:20:29;98194.41;;;16.06;96.80
52137;BME280;69622;49.570;10.986;2023-07-31T05:23:30;98201.72;;;15.77;99.60
52137;BME280;69622;49.570;10.986;2023-07-31T05:26:34;98202.75;;;16.02;98.50
52137;BME280;69622;49.570;10.986;2023-07-31T05:29:35;98208.97;;;16.01;100.00
52137;BME280;69622;49.570;10.986;2023-07-31T05:32:37;98214.13;;;16.10;98.56
52137;BME280;69622;49.570;10.986;2023-07-31T05:35:38;98214.25;;;16.27;96.57
52137;BME280;69622;49.570;10.986;2023-07-31T05:38:40;98207.81;;;16.21;97.35
52137;BME280;69622;49.570;10.986;2023-07-31T05:41:43;98210.34;;;16.31;95.61
52137;BME280;69622;49.570;10.986;2023-07-31T05:44:45;98205.59;;;16.34;94.57
52137;BME280;69622;49.570;10.986;2023-07-31T05:47:46;98197.25;;;16.39;96.20
52137;BME280;69622;49.570;10.986;2023-07-31T05:50:48;98197.91;;;16.41;95.77
52137;BME280;69622;49.570;10.986;2023-07-31T05:53:49;98193.09;;;16.28;97.39
52137;BME280;69622;49.570;10.986;2023-07-31T05:56:51;98189.03;;;16.34;97.68
52137;BME280;69622;49.570;10.986;2023-07-31T05:59:52;98187.22;;;16.34;98.46
52137;BME280;69622;49.570;10.986;2023-07-31T06:02:54;98190.41;;;16.46;97.65
52137;BME280;69622;49.570;10.986;2023-07-31T06:05:56;98180.59;;;16.22;98.00
52137;BME280;69622;49.570;10.986;2023-07-31T06:08:58;98188.69;;;16.29;98.60
52137;BME280;69622;49.570;10.986;2023-07-31T06:11:59;98196.97;;;16.42;95.67
52137;BME280;69622;49.570;10.986;2023-07-31T06:15:02;98196.56;;;16.29;97.90
52137;BME280;69622;49.570;10.986;2023-07-31T06:18:04;98193.28;;;16.35;96.94
52137;BME280;69622;49.570;10.986;2023-07-31T06:21:09;98194.59;;;16.31;99.20
52137;BME280;69622;49.570;10.986;2023-07-31T06:24:11;98197.66;;;16.52;95.54
52137;BME280;69622;49.570;10.986;2023-07-31T06:27:13;98198.63;;;16.51;95.02
52137;BME280;69622;49.570;10.986;2023-07-31T06:30:15;98209.03;;;16.61;95.82
52137;BME280;69622;49.570;10.986;2023-07-31T06:33:16;98198.59;;;16.69;95.83
52137;BME280;69622;49.570;10.986;2023-07-31T06:36:18;98190.34;;;16.64;96.25
52137;BME280;69622;49.570;10.986;2023-07-31T06:39:20;98191.22;;;16.72;94.39
52137;BME280;69622;49.570;10.986;2023-07-31T06:42:21;98186.22;;;16.95;95.21
52137;BME280;69622;49.570;10.986;2023-07-31T06:45:23;98193.31;;;17.03;96.39
52137;BME280;69622;49.570;10.986;2023-07-31T06:48:24;98192.16;;;16.97;94.34
52137;BME280;69622;49.570;10.986;2023-07-31T06:51:26;98191.53;;;17.12;94.38
52137;BME280;69622;49.570;10.986;2023-07-31T06:54:28;98200.13;;;17.22;95.27
52137;BME280;69622;49.570;10.986;2023-07-31T06:57:30;98190.91;;;17.26;92.18
52137;BME280;69622;49.570;10.986;2023-07-31T07:00:31;98200.16;;;17.54;90.59
52137;BME280;69622;49.570;10.986;2023-07-31T07:03:33;98203.44;;;17.64;89.05
52137;BME280;69622;49.570;10.986;2023-07-31T07:06:35;98212.81;;;17.67;84.38
52137;BME280;69622;49.570;10.986;2023-07-31T07:09:36;98205.44;;;17.54;85.41
52137;BME280;69622;49.570;10.986;2023-07-31T07:12:38;98204.81;;;17.77;87.33
52137;BME280;69622;49.570;10.986;2023-07-31T07:15:39;98205.97;;;17.74;82.34
52137;BME280;69622;49.570;10.986;2023-07-31T07:18:41;98203.84;;;18.02;79.77
52137;BME280;69622;49.570;10.986;2023-07-31T07:22:02;98207.28;;;17.86;85.21
52137;BME280;69622;49.570;10.986;2023-07-31T07:25:04;98204.97;;;17.91;87.52
52137;BME280;69622;49.570;10.986;2023-07-31T07:28:06;98200.22;;;18.03;84.88
52137;BME280;69622;49.570;10.986;2023-07-31T07:31:07;98207.28;;;18.03;85.31
52137;BME280;69622;49.570;10.986;2023-07-31T07:34:09;98220.78;;;18.00;79.52
52137;BME280;69622;49.570;10.986;2023-07-31T07:37:11;98203.16;;;18.08;80.46
52137;BME280;69622;49.570;10.986;2023-07-31T07:40:13;98206.13;;;17.97;81.19
52137;BME280;69622;49.570;10.986;2023-07-31T07:43:14;98201.03;;;17.87;83.18
52137;BME280;69622;49.570;10.986;2023-07-31T07:46:16;98205.00;;;18.00;81.09
52137;BME280;69622;49.570;10.986;2023-07-31T07:49:17;98203.84;;;17.86;82.07
52137;BME280;69622;49.570;10.986;2023-07-31T07:52:19;98202.34;;;17.91;81.48
52137;BME280;69622;49.570;10.986;2023-07-31T07:55:20;98193.94;;;17.96;80.22
52137;BME280;69622;49.570;10.986;2023-07-31T07:58:22;98194.94;;;18.11;79.55
52137;BME280;69622;49.570;10.986;2023-07-31T08:01:23;98187.38;;;18.16;80.17
52137;BME280;69622;49.570;10.986;2023-07-31T08:04:25;98187.53;;;18.15;80.39
52137;BME280;69622;49.570;10.986;2023-07-31T08:07:26;98187.81;;;18.28;79.22
52137;BME280;69622;49.570;10.986;2023-07-31T08:10:28;98196.41;;;18.14;79.02
52137;BME280;69622;49.570;10.986;2023-07-31T08:13:29;98193.94;;;18.20;79.34
52137;BME280;69622;49.570;10.986;2023-07-31T08:16:31;98183.28;;;18.77;81.24
52137;BME280;69622;49.570;10.986;2023-07-31T08:19:33;98188.25;;;18.56;78.90
52137;BME280;69622;49.570;10.986;2023-07-31T08:22:34;98185.88;;;18.85;76.75
52137;BME280;69622;49.570;10.986;2023-07-31T08:25:36;98181.47;;;18.78;78.62
52137;BME280;69622;49.570;10.986;2023-07-31T08:28:37;98161.44;;;19.00;78.83
52137;BME280;69622;49.570;10.986;2023-07-31T08:31:41;98167.38;;;19.02;78.76
52137;BME280;69622;49.570;10.986;2023-07-31T08:34:43;98161.47;;;18.92;76.31
52137;BME280;69622;49.570;10.986;2023-07-31T08:37:44;98139.47;;;19.15;81.22
52137;BME280;69622;49.570;10.986;2023-07-31T08:40:46;98137.81;;;19.14;75.62
52137;BME280;69622;49.570;10.986;2023-07-31T08:43:49;98141.91;;;19.17;80.80
52137;BME280;69622;49.570;10.986;2023-07-31T08:46:52;98137.19;;;19.12;77.66
52137;BME280;69622;49.570;10.986;2023-07-31T08:49:54;98143.88;;;19.46;80.65
52137;BME280;69622;49.570;10.986;2023-07-31T08:52:56;98139.69;;;19.52;78.84
52137;BME280;69622;49.570;10.986;2023-07-31T08:55:59;98150.47;;;19.88;78.99
52137;BME280;69622;49.570;10.986;2023-07-31T08:59:02;98155.09;;;19.86;72.25
52137;BME280;69622;49.570;10.986;2023-07-31T09:02:07;98154.22;;;19.70;75.97
52137;BME280;69622;49.570;10.986;2023-07-31T09:05:10;98147.00;;;19.87;82.36
52137;BME280;69622;49.570;10.986;2023-07-31T09:08:14;98146.84;;;19.89;81.24
52137;BME280;69622;49.570;10.986;2023-07-31T09:11:16;98148.13;;;19.93;78.57
52137;BME280;69622;49.570;10.986;2023-07-31T09:14:18;98146.84;;;19.89;76.74
52137;BME280;69622;49.570;10.986;2023-07-31T09:17:29;98131.00;;;20.03;76.88
52137;BME280;69622;49.570;10.986;2023-07-31T09:20:32;98126.13;;;20.15;71.17
52137;BME280;69622;49.570;10.986;2023-07-31T09:23:41;98130.03;;;20.19;71.73
52137;BME280;69622;49.570;10.986;2023-07-31T09:26:43;98126.75;;;20.17;70.01
52137;BME280;69622;49.570;10.986;2023-07-31T09:29:45;98127.50;;;20.11;71.85
52137;BME280;69622;49.570;10.986;2023-07-31T09:33:02;98124.94;;;20.32;77.10
52137;BME280;69622;49.570;10.986;2023-07-31T09:36:04;98128.63;;;20.46;78.54
52137;BME280;69622;49.570;10.986;2023-07-31T09:39:09;98125.97;;;20.46;77.96
52137;BME280;69622;49.570;10.986;2023-07-31T09:42:10;98123.59;;;20.22;78.57
52137;BME280;69622;49.570;10.986;2023-07-31T09:45:12;98119.38;;;20.13;74.34
52137;BME280;69622;49.570;10.986;2023-07-31T09:48:23;98114.34;;;20.03;78.51
52137;BME280;69622;49.570;10.986;2023-07-31T09:51:26;98107.38;;;20.25;74.68
52137;BME280;69622;49.570;10.986;2023-07-31T09:54:28;98097.81;;;20.09;77.86
52137;BME280;69622;49.570;10.986;2023-07-31T09:57:30;98105.38;;;20.12;74.95
52137;BME280;69622;49.570;10.986;2023-07-31T10:00:33;98095.63;;;20.27;74.87
52137;BME280;69622;49.570;10.986;2023-07-31T10:03:36;98093.56;;;20.23;78.43
52137;BME280;69622;49.570;10.986;2023-07-31T10:06:40;98096.47;;;20.57;70.41
52137;BME280;69622;49.570;10.986;2023-07-31T10:09:44;98088.72;;;20.26;71.56
52137;BME280;69622;49.570;10.986;2023-07-31T10:12:48;98082.34;;;20.36;69.33
52137;BME280;69622;49.570;10.986;2023-07-31T10:15:50;98086.44;;;20.09;73.10
52137;BME280;69622;49.570;10.986;2023-07-31T10:18:53;98076.50;;;20.40;71.27
52137;BME280;69622;49.570;10.986;2023-07-31T10:21:56;98071.25;;;20.55;69.58
52137;BME280;69622;49.570;10.986;2023-07-31T10:25:00;98063.22;;;20.48;69.26
52137;BME280;69622;49.570;10.986;2023-07-31T10:28:02;98066.56;;;20.72;68.26
52137;BME280;69622;49.570;10.986;2023-07-31T10:31:04;98059.94;;;20.82;68.14
52137;BME280;69622;49.570;10.986;2023-07-31T10:34:06;98053.72;;;20.69;72.40
52137;BME280;69622;49.570;10.986;2023-07-31T10:37:35;98051.69;;;21.07;75.36
52137;BME280;69622;49.570;10.986;2023-07-31T10:40:38;98049.31;;;20.76;68.18
52137;BME280;69622;49.570;10.986;2023-07-31T10:43:40;98041.72;;;20.87;69.22
52137;BME280;69622;49.570;10.986;2023-07-31T10:46:42;98042.13;;;21.27;66.55
52137;BME280;69622;49.570;10.986;2023-07-31T10:49:45;98029.94;;;21.11;66.44
52137;BME280;69622;49.570;10.986;2023-07-31T10:52:49;98030.53;;;21.28;65.00
52137;BME280;69622;49.570;10.986;2023-07-31T10:55:51;98033.94;;;21.22;66.57
52137;BME280;69622;49.570;10.986;2023-07-31T10:59:00;98041.84;;;20.79;63.64
52137;BME280;69622;49.570;10.986;2023-07-31T11:02:05;98032.22;;;20.72;65.75
52137;BME280;69622;49.570;10.986;2023-07-31T11:05:10;98029.38;;;20.52;66.22
52137;BME280;69622;49.570;10.986;2023-07-31T11:11:18;98033.31;;;20.62;66.81
52137;BME280;69622;49.570;10.986;2023-07-31T11:14:20;98023.91;;;20.53;67.04
52137;BME280;69622;49.570;10.986;2023-07-31T11:17:25;98031.41;;;20.92;64.71
52137;BME280;69622;49.570;10.986;2023-07-31T11:20:29;98026.44;;;20.83;66.32
52137;BME280;69622;49.570;10.986;2023-07-31T11:23:32;98018.03;;;20.58;71.32
52137;BME280;69622;49.570;10.986;2023-07-31T11:26:33;98013.09;;;20.91;69.91
52137;BME280;69622;49.570;10.986;2023-07-31T11:29:35;98019.75;;;20.66;71.02
52137;BME280;69622;49.570;10.986;2023-07-31T11:32:37;98019.16;;;20.85;66.10
52137;BME280;69622;49.570;10.986;2023-07-31T11:35:47;98024.09;;;20.73;71.88
52137;BME280;69622;49.570;10.986;2023-07-31T11:38:49;98027.56;;;20.74;71.15
52137;BME280;69622;49.570;10.986;2023-07-31T11:41:51;98022.53;;;20.79;66.50
52137;BME280;69622;49.570;10.986;2023-07-31T11:44:52;98020.78;;;20.50;69.75
52137;BME280;69622;49.570;10.986;2023-07-31T11:47:54;98022.13;;;20.60;69.73
52137;BME280;69622;49.570;10.986;2023-07-31T11:50:58;98016.88;;;20.46;70.07
52137;BME280;69622;49.570;10.986;2023-07-31T11:54:01;98011.03;;;20.50;73.97
52137;BME280;69622;49.570;10.986;2023-07-31T11:57:04;98015.97;;;20.75;72.76
52137;BME280;69622;49.570;10.986;2023-07-31T12:00:08;98007.69;;;20.42;72.13
52137;BME280;69622;49.570;10.986;2023-07-31T12:03:11;98012.34;;;20.76;67.89
52137;BME280;69622;49.570;10.986;2023-07-31T12:06:12;98006.53;;;20.66;69.65
52137;BME280;69622;49.570;10.986;2023-07-31T12:09:14;98011.97;;;20.79;66.94
52137;BME280;69622;49.570;10.986;2023-07-31T12:12:20;98004.84;;;20.58;73.04
52137;BME280;69622;49.570;10.986;2023-07-31T12:15:29;98000.22;;;20.45;72.18
52137;BME280;69622;49.570;10.986;2023-07-31T12:18:35;98004.97;;;20.71;65.84
52137;BME280;69622;49.570;10.986;2023-07-31T12:21:37;98000.75;;;20.55;67.61
52137;BME280;69622;49.570;10.986;2023-07-31T12:24:43;97994.41;;;20.71;69.19
52137;BME280;69622;49.570;10.986;2023-07-31T12:27:50;97987.75;;;20.75;66.93
52137;BME280;69622;49.570;10.986;2023-07-31T12:30:56;97983.66;;;20.94;64.92
52137;BME280;69622;49.570;10.986;2023-07-31T12:33:58;97986.88;;;20.89;70.34
52137;BME280;69622;49.570;10.986;2023-07-31T12:37:00;97995.94;;;21.02;67.62
52137;BME280;69622;49.570;10.986;2023-07-31T12:40:01;97986.69;;;20.91;66.40
52137;BME280;69622;49.570;10.986;2023-07-31T12:43:09;97969.84;;;21.20;67.82
52137;BME280;69622;49.570;10.986;2023-07-31T12:46:10;97968.34;;;21.32;67.78
52137;BME280;69622;49.570;10.986;2023-07-31T12:49:12;97960.75;;;21.50;61.15
52137;BME280;69622;49.570;10.986;2023-07-31T12:52:14;97959.75;;;21.58;61.16
52137;BME280;69622;49.570;10.986;2023-07-31T12:55:15;97949.09;;;22.21;62.24
52137;BME280;69622;49.570;10.986;2023-07-31T12:58:17;97948.72;;;22.30;57.66
52137;BME280;69622;49.570;10.986;2023-07-31T13:01:19;97946.16;;;22.63;57.81
52137;BME280;69622;49.570;10.986;2023-07-31T13:04:20;97940.50;;;23.26;59.43
52137;BME280;69622;49.570;10.986;2023-07-31T13:07:22;97942.91;;;23.47;59.50
52137;BME280;69622;49.570;10.986;2023-07-31T13:10:24;97932.91;;;23.63;55.21
52137;BME280;69622;49.570;10.986;2023-07-31T13:13:28;97938.19;;;23.76;56.72
52137;BME280;69622;49.570;10.986;2023-07-31T13:16:32;97939.47;;;23.40;53.76
52137;BME280;69622;49.570;10.986;2023-07-31T13:19:33;97933.38;;;23.26;56.72
52137;BME280;69622;49.570;10.986;2023-07-31T13:22:35;97926.84;;;23.22;53.46
52137;BME280;69622;49.570;10.986;2023-07-31T13:25:36;97926.84;;;22.89;54.70
52137;BME280;69622;49.570;10.986;2023-07-31T13:28:38;97910.69;;;22.64;54.41
52137;BME280;69622;49.570;10.986;2023-07-31T13:31:39;97902.34;;;22.61;59.46
52137;BME280;69622;49.570;10.986;2023-07-31T13:34:41;97906.47;;;22.90;57.52
52137;BME280;69622;49.570;10.986;2023-07-31T13:37:42;97900.91;;;23.38;55.92
52137;BME280;69622;49.570;10.986;2023-07-31T13:40:44;97888.91;;;23.15;58.46
52137;BME280;69622;49.570;10.986;2023-07-31T13:43:45;97893.78;;;23.18;57.51
52137;BME280;69622;49.570;10.986;2023-07-31T13:46:46;97885.38;;;23.41;57.67
52137;BME280;69622;49.570;10.986;2023-07-31T13:49:48;97881.34;;;23.25;59.60
52137;BME280;69622;49.570;10.986;2023-07-31T13:52:50;97865.97;;;23.67;54.60
52137;BME280;69622;49.570;10.986;2023-07-31T13:55:51;97868.53;;;24.32;52.83
52137;BME280;69622;49.570;10.986;2023-07-31T13:58:53;97867.38;;;24.77;53.53
52137;BME280;69622;49.570;10.986;2023-07-31T14:01:54;97857.63;;;24.90;50.71
52137;BME280;69622;49.570;10.986;2023-07-31T14:04:55;97868.53;;;24.57;51.45
52137;BME280;69622;49.570;10.986;2023-07-31T14:07:57;97865.00;;;23.93;52.68
52137;BME280;69622;49.570;10.986;2023-07-31T14:10:58;97862.88;;;24.08;54.36
52137;BME280;69622;49.570;10.986;2023-07-31T14:14:00;97858.28;;;23.26;55.18
52137;BME280;69622;49.570;10.986;2023-07-31T14:17:03;97861.38;;;23.10;53.82
52137;BME280;69622;49.570;10.986;2023-07-31T14:20:05;97859.09;;;22.54;54.95
52137;BME280;69622;49.570;10.986;2023-07-31T14:23:07;97857.69;;;22.51;55.33
52137;BME280;69622;49.570;10.986;2023-07-31T14:26:09;97857.88;;;22.50;57.16
52137;BME280;69622;49.570;10.986;2023-07-31T14:29:11;97855.41;;;22.22;57.38
52137;BME280;69622;49.570;10.986;2023-07-31T14:32:13;97850.50;;;22.12;58.91
52137;BME280;69622;49.570;10.986;2023-07-31T14:35:14;97859.50;;;22.37;59.18
52137;BME280;69622;49.570;10.986;2023-07-31T14:38:16;97851.31;;;22.19;58.87
52137;BME280;69622;49.570;10.986;2023-07-31T14:41:17;97844.22;;;22.26;59.71
52137;BME280;69622;49.570;10.986;2023-07-31T14:44:19;97842.59;;;22.32;58.51
52137;BME280;69622;49.570;10.986;2023-07-31T14:47:20;97850.25;;;22.00;59.37
52137;BME280;69622;49.570;10.986;2023-07-31T14:50:22;97843.66;;;21.83;60.05
52137;BME280;69622;49.570;10.986;2023-07-31T14:53:24;97849.09;;;22.16;58.41
52137;BME280;69622;49.570;10.986;2023-07-31T14:56:25;97843.69;;;21.90;59.67
52137;BME280;69622;49.570;10.986;2023-07-31T14:59:29;97853.50;;;21.96;59.64
52137;BME280;69622;49.570;10.986;2023-07-31T15:02:30;97848.97;;;21.90;59.81
52137;BME280;69622;49.570;10.986;2023-07-31T15:05:33;97850.09;;;22.15;59.98
52137;BME280;69622;49.570;10.986;2023-07-31T15:08:35;97848.19;;;21.96;58.81
52137;BME280;69622;49.570;10.986;2023-07-31T15:11:37;97840.81;;;21.85;58.22
52137;BME280;69622;49.570;10.986;2023-07-31T15:14:39;97837.75;;;21.81;57.82
52137;BME280;69622;49.570;10.986;2023-07-31T15:17:40;97835.34;;;21.86;59.75
52137;BME280;69622;49.570;10.986;2023-07-31T15:20:42;97836.16;;;21.87;62.26
52137;BME280;69622;49.570;10.986;2023-07-31T15:23:43;97828.41;;;21.78;61.67
52137;BME280;69622;49.570;10.986;2023-07-31T15:26:45;97815.94;;;21.72;63.23
52137;BME280;69622;49.570;10.986;2023-07-31T15:29:49;97815.19;;;21.92;63.90
52137;BME280;69622;49.570;10.986;2023-07-31T15:32:52;97812.13;;;21.81;64.46
52137;BME280;69622;49.570;10.986;2023-07-31T15:35:54;97812.03;;;21.62;62.64
52137;BME280;69622;49.570;10.986;2023-07-31T15:38:56;97799.47;;;21.70;64.90
52137;BME280;69622;49.570;10.986;2023-07-31T15:41:58;97803.94;;;21.63;63.04
52137;BME280;69622;49.570;10.986;2023-07-31T15:44:59;97799.88;;;21.74;64.76
52137;BME280;69622;49.570;10.986;2023-07-31T15:48:01;97800.47;;;21.63;63.51
52137;BME280;69622;49.570;10.986;2023-07-31T15:51:03;97793.56;;;21.75;64.77
52137;BME280;69622;49.570;10.986;2023-07-31T15:54:05;97786.63;;;21.67;64.78
52137;BME280;69622;49.570;10.986;2023-07-31T15:57:06;97782.06;;;22.09;65.28